Time;durP1;ratioP1;P1;durP2;ratioP2;P2;SDS_P1;SDS_P2;PMS_P1;PMS_P2;Temp;Humidity;BMP_temperature;BMP_pressure;BME280_temperature;BME280_humidity;BME280_pressure;Samples;Min_cycle;Max_cycle;Signal;HPM_P1;HPM_P2
2023/06/18 00:01:53;;;;;;;6.40;5.80;;;;;;;17.45;49.56;98617.88;5158228;27;42794;-77
2023/06/18 00:04:20;;;;;;;7.23;6.53;;;;;;;17.42;50.47;98609.31;5175201;27;43248;-76
2023/06/18 00:06:48;;;;;;;7.90;6.57;;;;;;;17.37;50.57;98620.44;5157519;27;39860;-76
2023/06/18 00:09:15;;;;;;;7.03;6.37;;;;;;;17.36;50.52;98612.53;5175408;27;42357;-76
2023/06/18 00:11:45;;;;;;;6.53;5.93;;;;;;;17.33;50.35;98611.00;5175068;27;43626;-75
2023/06/18 00:14:12;;;;;;;8.13;6.43;;;;;;;17.19;50.69;98601.56;5193967;27;43188;-76
2023/06/18 00:16:40;;;;;;;5.93;5.43;;;;;;;17.29;50.73;98623.00;5175147;27;39945;-75
2023/06/18 00:19:07;;;;;;;5.93;5.43;;;;;;;17.29;50.64;98632.84;5174871;27;41879;-75
2023/06/18 00:21:35;;;;;;;6.33;5.70;;;;;;;17.22;50.65;98632.56;5174661;27;42519;-76
2023/06/18 00:24:04;;;;;;;6.60;5.93;;;;;;;17.19;50.75;98628.34;5157528;27;41278;-75
2023/06/18 00:26:31;;;;;;;6.07;5.57;;;;;;;17.18;51.04;98637.34;5158079;27;39060;-75
2023/06/18 00:29:01;;;;;;;6.80;5.53;;;;;;;17.15;50.76;98637.66;5161090;27;41169;-75
2023/06/18 00:31:32;;;;;;;5.77;5.23;;;;;;;17.12;50.97;98637.09;5160842;27;41721;-76
2023/06/18 00:34:05;;;;;;;5.90;5.40;;;;;;;17.07;50.81;98636.66;5179302;27;41263;-75
2023/06/18 00:36:33;;;;;;;6.27;5.73;;;;;;;17.02;51.06;98630.91;5179277;27;39828;-76
2023/06/18 00:39:03;;;;;;;5.97;5.40;;;;;;;16.95;51.16;98635.13;5198412;27;41475;-77
2023/06/18 00:41:32;;;;;;;7.40;6.53;;;;;;;16.92;51.63;98635.41;5198491;27;43453;-76
2023/06/18 00:44:01;;;;;;;6.00;5.50;;;;;;;16.81;51.80;98634.53;5161984;27;42183;-79
2023/06/18 00:46:30;;;;;;;6.23;5.63;;;;;;;16.84;51.49;98639.63;5179409;27;40891;-75
2023/06/18 00:48:58;;;;;;;6.13;5.53;;;;;;;16.70;51.71;98621.31;5162004;27;41857;-75
2023/06/18 00:51:27;;;;;;;5.80;5.30;;;;;;;16.71;51.93;98632.84;5198047;27;42462;-76
2023/06/18 00:53:58;;;;;;;7.27;6.57;;;;;;;16.77;51.88;98638.50;5179184;27;42929;-76
2023/06/18 00:56:29;;;;;;;6.53;5.93;;;;;;;16.68;52.17;98628.66;5161465;27;40908;-76
2023/06/18 00:58:57;;;;;;;5.77;5.27;;;;;;;16.74;52.49;98633.44;5161798;27;40655;-76
2023/06/18 01:01:26;;;;;;;6.77;6.07;;;;;;;16.74;52.48;98636.09;5177860;27;43580;-76
2023/06/18 01:03:56;;;;;;;6.50;5.90;;;;;;;16.74;52.63;98644.13;5178018;27;43077;-77
2023/06/18 01:06:26;;;;;;;5.73;5.20;;;;;;;16.69;52.44;98634.84;5160355;27;38613;-76
2023/06/18 01:08:55;;;;;;;5.53;5.03;;;;;;;16.69;52.42;98645.56;5160550;27;42040;-76
2023/06/18 01:11:23;;;;;;;6.20;5.30;;;;;;;16.64;52.30;98643.28;5160281;27;41709;-77
2023/06/18 01:13:52;;;;;;;8.10;6.30;;;;;;;16.59;52.61;98648.16;5160509;27;41440;-77
2023/06/18 01:16:22;;;;;;;7.23;6.40;;;;;;;16.55;54.86;98633.41;5177844;27;39931;-76
2023/06/18 01:18:53;;;;;;;6.53;5.93;;;;;;;16.40;54.09;98616.91;5176789;27;41499;-76
2023/06/18 01:21:24;;;;;;;6.37;5.73;;;;;;;16.45;53.78;98632.50;5196609;27;43091;-77
2023/06/18 01:24:03;;;;;;;6.10;5.50;;;;;;;16.44;54.97;98636.19;5178161;27;41912;-76
2023/06/18 01:26:33;;;;;;;6.33;5.73;;;;;;;16.33;54.44;98629.13;5175109;27;40619;-76
2023/06/18 01:29:01;;;;;;;6.97;6.27;;;;;;;16.30;55.21;98631.25;5177592;27;42554;-76
2023/06/18 01:31:36;;;;;;;7.47;6.70;;;;;;;16.08;56.05;98597.56;5160075;27;42106;-76
2023/06/18 01:34:06;;;;;;;6.93;6.23;;;;;;;16.24;55.17;98629.94;5160766;27;42504;-76
2023/06/18 01:36:47;;;;;;;6.80;6.10;;;;;;;16.20;55.78;98631.19;5178705;27;39844;-76
2023/06/18 01:39:25;;;;;;;6.67;6.03;;;;;;;16.14;55.19;98623.75;5161312;27;41568;-76
2023/06/18 01:42:03;;;;;;;6.10;5.60;;;;;;;16.01;55.10;98618.63;5176374;27;42872;-76
2023/06/18 01:44:31;;;;;;;6.40;5.80;;;;;;;16.01;54.62;98633.81;5178545;27;42322;-77
2023/06/18 01:47:00;;;;;;;5.60;5.10;;;;;;;15.93;54.79;98631.84;5197352;27;40904;-76
2023/06/18 01:49:31;;;;;;;6.63;6.03;;;;;;;15.87;54.95;98628.84;5178502;27;41801;-76
2023/06/18 01:52:04;;;;;;;6.17;5.57;;;;;;;15.69;55.04;98608.13;5160993;27;42992;-76
2023/06/18 01:54:33;;;;;;;5.97;5.37;;;;;;;15.74;55.00;98629.06;5193978;27;42129;-75
2023/06/18 01:57:01;;;;;;;6.07;5.57;;;;;;;15.68;54.99;98626.94;5178418;27;40007;-75
2023/06/18 01:59:29;;;;;;;6.20;5.67;;;;;;;15.64;55.08;98630.84;5160783;27;41842;-75
2023/06/18 02:01:57;;;;;;;5.70;5.20;;;;;;;15.58;55.17;98631.41;5159421;27;41659;-75
2023/06/18 02:04:25;;;;;;;6.50;5.80;;;;;;;15.53;55.26;98629.09;5159103;27;42969;-75
2023/06/18 02:06:56;;;;;;;6.67;5.97;;;;;;;15.49;55.17;98627.66;5159309;27;39942;-75
2023/06/18 02:09:24;;;;;;;6.20;5.60;;;;;;;15.45;55.19;98624.38;5176695;27;40835;-75
2023/06/18 02:11:57;;;;;;;5.87;5.37;;;;;;;15.42;55.60;98634.50;5177141;27;42685;-75
2023/06/18 02:14:30;;;;;;;6.40;5.80;;;;;;;15.37;55.40;98634.88;5160727;27;41255;-75
2023/06/18 02:16:59;;;;;;;6.00;5.50;;;;;;;15.06;55.36;98598.47;5176878;27;39802;-75
2023/06/18 02:19:26;;;;;;;6.30;5.70;;;;;;;15.31;55.35;98647.91;5176599;27;40643;-75
2023/06/18 02:21:57;;;;;;;6.17;5.60;;;;;;;15.25;55.32;98645.75;5176565;27;43722;-75
2023/06/18 02:24:24;;;;;;;6.23;5.63;;;;;;;15.22;55.31;98643.34;5176841;27;42246;-75
2023/06/18 02:26:51;;;;;;;6.50;5.90;;;;;;;15.19;55.18;98647.16;5159265;27;38942;-75
2023/06/18 02:29:20;;;;;;;6.07;5.47;;;;;;;15.09;55.34;98638.19;5159018;27;40794;-75
2023/06/18 02:31:47;;;;;;;6.43;5.93;;;;;;;15.13;55.33;98650.31;5159071;27;41825;-75
2023/06/18 02:34:18;;;;;;;5.77;5.20;;;;;;;15.12;55.18;98643.28;5196131;27;42193;-75
2023/06/18 02:36:45;;;;;;;5.63;5.00;;;;;;;15.09;55.56;98641.72;5159845;27;42106;-75
2023/06/18 02:39:15;;;;;;;5.50;5.00;;;;;;;15.06;55.51;98628.66;5160249;27;41666;-76
2023/06/18 02:41:42;;;;;;;5.50;5.10;;;;;;;15.02;55.92;98629.88;5196320;27;43587;-75
2023/06/18 02:44:10;;;;;;;5.20;4.80;;;;;;;15.04;55.76;98632.44;5177505;27;42064;-76
2023/06/18 02:46:37;;;;;;;6.03;5.37;;;;;;;15.03;55.78;98636.06;5159864;27;39149;-75
2023/06/18 02:49:05;;;;;;;5.13;4.67;;;;;;;14.92;56.09;98622.78;5177233;27;41589;-75
2023/06/18 02:51:32;;;;;;;5.87;5.37;;;;;;;14.97;55.84;98625.91;5177336;27;42730;-75
2023/06/18 02:54:00;;;;;;;5.33;4.87;;;;;;;14.94;55.98;98634.19;5160447;27;41120;-75
2023/06/18 02:56:30;;;;;;;6.10;5.50;;;;;;;14.81;56.21;98620.19;5177384;27;40888;-74
2023/06/18 02:58:58;;;;;;;5.23;4.80;;;;;;;14.86;56.56;98632.13;5159687;27;42126;-75
2023/06/18 03:01:31;;;;;;;5.87;5.37;;;;;;;14.82;56.53;98627.22;5159036;27;43362;-75
2023/06/18 03:03:59;;;;;;;6.00;5.50;;;;;;;14.78;56.39;98631.09;5157544;27;41491;-75
2023/06/18 03:06:30;;;;;;;5.83;5.33;;;;;;;14.74;56.80;98618.00;5158343;27;39000;-75
2023/06/18 03:08:57;;;;;;;6.20;5.20;;;;;;;14.70;56.55;98629.94;5158599;27;40806;-75
2023/06/18 03:11:26;;;;;;;6.27;5.57;;;;;;;14.67;56.95;98624.00;5158583;27;41764;-75
2023/06/18 03:13:56;;;;;;;5.57;5.07;;;;;;;14.63;56.92;98627.88;5157836;27;40998;-74
2023/06/18 03:16:26;;;;;;;6.30;5.67;;;;;;;14.60;56.94;98625.44;5175994;27;40899;-74
2023/06/18 03:18:56;;;;;;;6.37;5.80;;;;;;;14.58;57.19;98632.75;5158296;27;40677;-75
2023/06/18 03:21:25;;;;;;;7.17;5.60;;;;;;;14.56;57.14;98627.53;5158074;27;43046;-75
2023/06/18 03:23:56;;;;;;;5.43;4.93;;;;;;;14.55;57.27;98625.84;5158498;27;41033;-75
2023/06/18 03:26:24;;;;;;;5.47;4.97;;;;;;;14.53;57.24;98635.78;5175804;27;40871;-75
2023/06/18 03:28:52;;;;;;;5.30;4.80;;;;;;;14.51;57.35;98637.72;5175660;27;42190;-75
2023/06/18 03:31:22;;;;;;;5.43;5.00;;;;;;;14.50;57.52;98632.50;5175602;27;43798;-75
2023/06/18 03:33:51;;;;;;;5.83;5.23;;;;;;;14.51;57.23;98635.06;5173553;27;42121;-74
2023/06/18 03:36:20;;;;;;;5.77;5.27;;;;;;;14.51;57.09;98645.72;5176093;27;40428;-74
2023/06/18 03:38:49;;;;;;;6.57;5.17;;;;;;;14.51;57.20;98636.88;5159265;27;40901;-75
2023/06/18 03:41:17;;;;;;;6.00;5.40;;;;;;;14.51;57.46;98651.06;5176520;27;43493;-74
2023/06/18 03:43:44;;;;;;;5.63;5.13;;;;;;;14.48;57.30;98637.97;5176875;27;43112;-74
2023/06/18 03:46:12;;;;;;;5.53;5.03;;;;;;;14.53;57.54;98649.09;5176616;27;39929;-74
2023/06/18 03:48:43;;;;;;;5.90;5.40;;;;;;;14.55;57.67;98646.31;5176532;27;42929;-74
2023/06/18 03:51:10;;;;;;;6.70;5.93;;;;;;;14.54;57.48;98634.81;5176784;27;43169;-74
2023/06/18 03:53:39;;;;;;;5.90;5.20;;;;;;;14.40;57.82;98621.78;5176797;27;42137;-75
2023/06/18 03:56:08;;;;;;;5.47;5.00;;;;;;;14.54;57.63;98640.16;5176554;27;39756;-74
2023/06/18 03:58:36;;;;;;;6.07;5.53;;;;;;;14.69;57.82;98657.53;5158860;27;42384;-75
2023/06/18 04:01:05;;;;;;;5.33;4.87;;;;;;;14.73;58.35;98650.97;5157941;27;42785;-75
2023/06/18 04:03:33;;;;;;;6.33;5.30;;;;;;;14.78;58.18;98652.41;5160847;27;41791;-76
2023/06/18 04:06:02;;;;;;;6.57;5.40;;;;;;;14.85;58.22;98658.91;5179243;27;40052;-76
2023/06/18 04:08:30;;;;;;;6.50;5.90;;;;;;;14.89;58.62;98655.88;5161377;27;41844;-76
2023/06/18 04:10:58;;;;;;;6.10;5.50;;;;;;;14.96;58.40;98661.56;5161593;27;41896;-75
2023/06/18 04:13:28;;;;;;;6.60;6.00;;;;;;;14.90;58.38;98649.56;5178746;27;43191;-75
2023/06/18 04:15:58;;;;;;;6.10;5.60;;;;;;;15.09;58.52;98656.88;5161608;27;40142;-75
2023/06/18 04:18:26;;;;;;;6.30;5.70;;;;;;;15.15;58.62;98653.69;5178791;27;42224;-75
2023/06/18 04:20:54;;;;;;;5.77;5.27;;;;;;;15.23;58.48;98659.22;5178856;27;41748;-75
2023/06/18 04:23:24;;;;;;;6.33;5.73;;;;;;;15.30;58.41;98673.75;5178886;27;42999;-75
2023/06/18 04:25:52;;;;;;;6.67;6.07;;;;;;;15.23;57.86;98651.22;5161376;27;40276;-74
2023/06/18 04:28:22;;;;;;;5.97;5.47;;;;;;;15.45;57.87;98674.28;5160903;27;42027;-75
2023/06/18 04:30:50;;;;;;;5.73;5.17;;;;;;;15.55;57.80;98674.38;5161009;27;43277;-75
2023/06/18 04:33:19;;;;;;;6.00;5.50;;;;;;;15.64;57.78;98668.22;5178639;27;42195;-75
2023/06/18 04:35:48;;;;;;;6.20;5.70;;;;;;;15.74;57.35;98666.44;5179198;27;40220;-75
2023/06/18 04:38:15;;;;;;;6.07;5.47;;;;;;;15.84;57.23;98667.34;5198230;27;41689;-75
2023/06/18 04:40:46;;;;;;;5.60;5.10;;;;;;;15.94;57.07;98670.91;5179640;27;42988;-74
2023/06/18 04:43:14;;;;;;;6.00;5.50;;;;;;;16.05;57.22;98676.16;5179369;27;42052;-74
2023/06/18 04:45:46;;;;;;;6.40;5.80;;;;;;;16.01;56.97;98649.84;5176427;27;39811;-74
2023/06/18 04:48:15;;;;;;;6.40;5.80;;;;;;;16.21;57.27;98664.09;5161753;27;40628;-75
2023/06/18 04:50:43;;;;;;;7.93;6.67;;;;;;;16.44;57.24;98678.97;5179053;27;43516;-75
2023/06/18 04:53:12;;;;;;;7.80;7.10;;;;;;;16.55;57.61;98675.31;5161923;27;42352;-76
2023/06/18 04:55:40;;;;;;;7.73;6.57;;;;;;;16.62;57.16;98660.41;5179513;27;40989;-75
2023/06/18 04:58:10;;;;;;;8.30;7.40;;;;;;;16.79;57.05;98673.13;5143670;27;40544;-75
2023/06/18 05:00:39;;;;;;;7.20;6.50;;;;;;;16.83;57.00;98664.69;5174932;27;43869;-75
2023/06/18 05:03:06;;;;;;;6.83;6.23;;;;;;;17.10;56.58;98676.50;5196771;27;42304;-76
2023/06/18 05:05:34;;;;;;;7.17;6.47;;;;;;;17.24;56.53;98676.94;5178331;27;40641;-76
2023/06/18 05:08:04;;;;;;;7.30;6.67;;;;;;;17.38;56.23;98675.66;5177881;27;41395;-75
2023/06/18 05:10:35;;;;;;;7.20;6.57;;;;;;;17.51;56.62;98676.19;5160483;27;43141;-76
2023/06/18 05:13:04;;;;;;;7.80;7.10;;;;;;;17.67;56.19;98675.66;5176918;27;42265;-76
2023/06/18 05:15:33;;;;;;;7.60;6.90;;;;;;;17.68;56.43;98676.50;5160520;27;39068;-76
2023/06/18 05:18:01;;;;;;;7.93;7.23;;;;;;;17.84;56.48;98682.91;5160027;27;41198;-76
2023/06/18 05:20:29;;;;;;;7.50;6.17;;;;;;;17.98;56.04;98684.28;5160463;27;41698;-76
2023/06/18 05:22:57;;;;;;;7.17;6.57;;;;;;;18.10;55.97;98693.81;5196719;27;42373;-76
2023/06/18 05:25:28;;;;;;;7.37;6.67;;;;;;;18.21;56.29;98687.41;5160683;27;40225;-76
2023/06/18 05:27:55;;;;;;;8.23;7.43;;;;;;;18.31;55.59;98678.34;5177456;27;42772;-75
2023/06/18 05:30:23;;;;;;;8.33;7.60;;;;;;;18.42;55.18;98681.84;5177644;27;43546;-76
2023/06/18 05:32:53;;;;;;;8.13;7.33;;;;;;;18.54;55.27;98680.63;5160436;27;42373;-75
2023/06/18 05:35:21;;;;;;;7.47;6.77;;;;;;;18.69;55.41;98681.81;5161216;27;39113;-75
2023/06/18 05:37:55;;;;;;;9.10;8.03;;;;;;;18.82;54.82;98690.34;5160938;27;42462;-75
2023/06/18 05:40:23;;;;;;;8.00;7.30;;;;;;;18.95;54.43;98693.50;5178696;27;42817;-76
2023/06/18 05:42:51;;;;;;;8.40;6.93;;;;;;;18.98;54.33;98679.78;5160935;27;42230;-75
2023/06/18 05:45:20;;;;;;;6.90;6.30;;;;;;;19.21;54.29;98690.06;5144193;27;40090;-76
2023/06/18 05:47:47;;;;;;;7.70;6.90;;;;;;;19.38;54.23;98700.78;5160762;27;43307;-75
2023/06/18 05:50:25;;;;;;;7.97;7.17;;;;;;;19.52;53.35;98710.16;5175297;27;43690;-76
2023/06/18 05:52:52;;;;;;;7.97;7.17;;;;;;;19.67;53.18;98713.97;5178003;27;43148;-77
2023/06/18 05:55:20;;;;;;;9.53;7.80;;;;;;;19.78;52.89;98714.72;5178508;27;41012;-75
2023/06/18 05:57:49;;;;;;;7.77;7.07;;;;;;;19.98;52.22;98729.63;5160592;27;43035;-76
2023/06/18 06:00:18;;;;;;;7.93;7.27;;;;;;;20.07;52.46;98720.59;5160012;27;42312;-76
2023/06/18 06:02:47;;;;;;;9.17;7.97;;;;;;;20.13;52.03;98720.00;5176798;27;42640;-75
2023/06/18 06:05:21;;;;;;;7.80;7.10;;;;;;;20.36;52.04;98731.06;5173784;27;39994;-76
2023/06/18 06:07:52;;;;;;;7.30;6.60;;;;;;;20.45;52.18;98724.69;5176837;27;41790;-76
2023/06/18 06:10:20;;;;;;;7.87;7.17;;;;;;;20.66;51.91;98732.34;5176931;27;42900;-76
2023/06/18 06:12:48;;;;;;;8.00;7.13;;;;;;;20.71;51.50;98720.09;5159398;27;41498;-76
2023/06/18 06:15:17;;;;;;;8.03;7.23;;;;;;;20.80;50.99;98716.41;5159669;27;40220;-76
2023/06/18 06:17:45;;;;;;;8.03;7.33;;;;;;;21.03;50.70;98734.63;5176393;27;41897;-76
2023/06/18 06:20:15;;;;;;;7.83;7.00;;;;;;;21.10;50.18;98723.06;5159223;27;41630;-76
2023/06/18 06:22:42;;;;;;;8.30;7.33;;;;;;;21.33;49.65;98725.13;5159354;27;42723;-76
2023/06/18 06:25:12;;;;;;;11.03;7.37;;;;;;;21.58;49.16;98748.41;5194995;27;40956;-76
2023/06/18 06:27:41;;;;;;;9.57;6.67;;;;;;;21.72;49.06;98742.34;5159038;27;40767;-77
2023/06/18 06:30:10;;;;;;;8.20;7.50;;;;;;;21.88;48.67;98736.91;5176874;27;42755;-76
2023/06/18 06:32:38;;;;;;;7.03;6.43;;;;;;;22.05;48.99;98736.91;5159404;27;41243;-76
2023/06/18 06:35:07;;;;;;;7.97;7.17;;;;;;;22.21;48.60;98739.59;5160088;27;39041;-77
2023/06/18 06:37:35;;;;;;;8.67;7.20;;;;;;;22.36;47.70;98740.56;5177474;27;41939;-76
2023/06/18 06:40:06;;;;;;;9.30;7.20;;;;;;;22.61;47.43;98753.97;5160050;27;42527;-76
2023/06/18 06:42:38;;;;;;;7.77;7.07;;;;;;;22.96;46.83;98752.66;5176107;27;42265;-77
2023/06/18 06:45:27;;;;;;;7.47;6.87;;;;;;;23.28;45.93;98758.69;5160055;27;41479;-77
2023/06/18 06:48:14;;;;;;;8.47;7.23;;;;;;;23.52;45.67;98756.88;5177525;27;40531;-77
2023/06/18 06:50:41;;;;;;;8.10;7.30;;;;;;;23.65;44.95;98776.03;5195952;27;43744;-77
2023/06/18 06:53:35;;;;;;;8.27;7.47;;;;;;;23.81;44.86;98767.81;5193405;27;41943;-77
2023/06/18 06:56:03;;;;;;;7.83;7.13;;;;;;;23.96;44.67;98768.69;5160016;27;38826;-76
2023/06/18 06:58:32;;;;;;;7.53;6.83;;;;;;;24.13;44.92;98765.81;5142155;27;43748;-77
2023/06/18 07:01:01;;;;;;;7.93;7.23;;;;;;;24.28;44.11;98766.72;5176395;27;42818;-76
2023/06/18 07:03:28;;;;;;;8.83;7.60;;;;;;;24.26;43.83;98757.94;5158034;27;42436;-77
2023/06/18 07:05:56;;;;;;;7.63;6.93;;;;;;;24.49;43.37;98771.38;5176170;27;40264;-77
2023/06/18 07:08:24;;;;;;;7.70;7.10;;;;;;;24.63;43.63;98771.38;5175549;27;41099;-77
2023/06/18 07:10:51;;;;;;;8.50;7.70;;;;;;;24.81;43.77;98772.88;5158788;27;41827;-77
2023/06/18 07:13:19;;;;;;;8.37;7.67;;;;;;;24.95;42.43;98786.44;5158732;27;42153;-76
2023/06/18 07:15:48;;;;;;;7.33;6.63;;;;;;;25.09;42.57;98779.31;5159140;27;39221;-77
2023/06/18 07:18:16;;;;;;;7.47;6.70;;;;;;;25.28;41.70;98786.84;5194398;27;41849;-77
2023/06/18 07:20:44;;;;;;;7.70;7.07;;;;;;;25.51;41.66;98783.09;5158628;27;43124;-77
2023/06/18 07:23:12;;;;;;;7.50;6.80;;;;;;;25.55;42.01;98758.13;5176227;27;42950;-77
2023/06/18 07:25:39;;;;;;;7.50;6.83;;;;;;;25.86;41.37;98774.09;5195032;27;39913;-77
2023/06/18 07:28:07;;;;;;;8.13;7.43;;;;;;;26.00;41.16;98775.88;5175879;27;41904;-77
2023/06/18 07:30:35;;;;;;;8.03;7.10;;;;;;;26.37;40.62;98782.03;5158610;27;43194;-77
2023/06/18 07:33:06;;;;;;;10.37;7.07;;;;;;;26.72;40.24;98789.16;5195047;27;43197;-76
2023/06/18 07:35:33;;;;;;;7.67;6.97;;;;;;;27.08;39.54;98769.06;5195526;27;40908;-77
2023/06/18 07:38:01;;;;;;;7.40;6.70;;;;;;;27.48;39.13;98784.47;5176897;27;41844;-76
2023/06/18 07:40:33;;;;;;;7.77;7.17;;;;;;;27.60;39.33;98771.13;5176526;27;41537;-76
2023/06/18 07:43:00;;;;;;;7.33;6.73;;;;;;;27.94;38.07;98797.34;5192602;27;41916;-76
2023/06/18 07:45:28;;;;;;;8.00;7.30;;;;;;;28.04;37.20;98796.94;5159125;27;38699;-76
2023/06/18 07:47:56;;;;;;;7.77;7.07;;;;;;;28.09;36.98;98751.69;5176795;27;40770;-76
2023/06/18 07:50:25;;;;;;;6.57;6.07;;;;;;;29.22;36.45;98790.44;5158805;27;41739;-76
2023/06/18 07:52:53;;;;;;;7.37;6.77;;;;;;;30.30;34.81;98799.41;5159138;27;41987;-78
2023/06/18 07:55:20;;;;;;;7.13;6.53;;;;;;;31.16;32.69;98804.06;5176536;27;39739;-77
2023/06/18 07:57:48;;;;;;;7.97;7.30;;;;;;;31.89;32.21;98821.19;5158939;27;40505;-77
2023/06/18 08:00:16;;;;;;;7.53;6.93;;;;;;;32.69;31.00;98804.25;5158954;27;41621;-77
2023/06/18 08:02:45;;;;;;;9.37;8.50;;;;;;;34.02;30.11;98814.13;5159097;27;42795;-76
2023/06/18 08:05:12;;;;;;;8.63;7.83;;;;;;;35.49;28.07;98838.41;5159203;27;39919;-77
2023/06/18 08:07:42;;;;;;;7.73;7.13;;;;;;;36.76;26.24;98834.16;5159101;27;41027;-77
2023/06/18 08:10:10;;;;;;;7.82;6.60;;;;;;;37.75;25.18;98845.16;5175784;27;42710;-78
2023/06/18 08:12:38;;;;;;;7.88;7.07;;;;;;;38.64;24.39;98844.72;5193379;27;43096;-77
2023/06/18 08:15:06;;;;;;;7.53;6.10;;;;;;;39.43;22.84;98841.25;5175258;27;39170;-78
2023/06/18 08:17:34;;;;;;;6.55;6.00;;;;;;;40.12;22.20;98839.47;5174324;27;41493;-79
2023/06/18 08:20:02;;;;;;;6.30;5.85;;;;;;;40.65;21.70;98845.97;5175418;27;41685;-81
2023/06/18 08:22:29;;;;;;;7.43;6.82;;;;;;;40.84;20.21;98854.41;5175148;27;43260;-81
2023/06/18 08:24:58;;;;;;;6.65;6.15;;;;;;;40.77;21.09;98849.22;5175895;27;41321;-79
2023/06/18 08:27:26;;;;;;;5.95;5.45;;;;;;;40.47;20.89;98843.91;5175718;27;41837;-80
2023/06/18 08:29:53;;;;;;;6.60;6.10;;;;;;;40.36;20.90;98836.81;5194199;27;42812;-80
2023/06/18 08:32:21;;;;;;;6.82;6.32;;;;;;;40.19;21.43;98831.63;5193981;27;42288;-80
2023/06/18 08:34:49;;;;;;;6.75;6.15;;;;;;;39.91;21.58;98808.28;5195021;27;40244;-80
2023/06/18 08:37:16;;;;;;;6.68;6.07;;;;;;;39.67;21.53;98815.59;5194866;27;41708;-80
2023/06/18 08:39:44;;;;;;;6.45;5.85;;;;;;;39.39;20.56;98837.34;5154788;27;41592;-80
2023/06/18 08:42:19;;;;;;;6.45;6.00;;;;;;;39.02;21.56;98823.91;5155114;27;42149;-80
2023/06/18 08:44:50;;;;;;;6.60;6.10;;;;;;;38.86;21.18;98825.00;5175091;27;40713;-81
2023/06/18 08:47:18;;;;;;;6.93;6.30;;;;;;;38.32;21.33;98797.97;5195094;27;41813;-82
2023/06/18 08:49:50;;;;;;;6.72;6.10;;;;;;;38.12;21.95;98819.25;5161885;27;42429;-79
2023/06/18 08:52:19;;;;;;;6.30;5.80;;;;;;;37.69;21.83;98821.38;5162488;27;41197;-79
2023/06/18 08:54:52;;;;;;;6.43;5.93;;;;;;;37.46;22.08;98816.31;5198519;27;40732;-79
2023/06/18 08:57:29;;;;;;;6.53;5.95;;;;;;;37.22;22.87;98805.69;5195433;27;42778;-79
2023/06/18 08:59:59;;;;;;;6.77;6.17;;;;;;;37.03;22.32;98810.00;5162117;27;43071;-78
2023/06/18 09:02:27;;;;;;;6.40;5.80;;;;;;;36.84;22.98;98806.06;5178879;27;42646;-80
2023/06/18 09:04:56;;;;;;;6.73;6.20;;;;;;;37.12;22.46;98815.84;5177873;27;40801;-79
2023/06/18 09:07:25;;;;;;;7.63;7.07;;;;;;;37.55;21.50;98823.78;5178690;27;41833;-79
2023/06/18 09:09:52;;;;;;;7.30;6.60;;;;;;;37.58;21.19;98820.50;5178328;27;42513;-80
2023/06/18 09:12:24;;;;;;;6.77;6.27;;;;;;;37.39;21.48;98814.63;5178102;27;42255;-79
2023/06/18 09:14:51;;;;;;;7.33;6.70;;;;;;;37.64;21.69;98805.59;5159541;27;43050;-79
2023/06/18 09:17:19;;;;;;;7.23;6.60;;;;;;;38.38;21.18;98815.38;5194277;27;42737;-80
2023/06/18 09:19:48;;;;;;;7.57;6.87;;;;;;;38.37;21.25;98799.88;5195935;27;44308;-80
2023/06/18 09:22:17;;;;;;;7.37;6.77;;;;;;;38.12;22.02;98802.66;5178569;27;42694;-80
2023/06/18 09:24:56;;;;;;;7.13;6.50;;;;;;;38.28;21.49;98807.91;5177631;27;40922;-81
2023/06/18 09:27:32;;;;;;;6.83;6.23;;;;;;;38.06;20.83;98799.88;5178837;27;41256;-79
2023/06/18 09:29:59;;;;;;;6.93;6.43;;;;;;;37.92;21.61;98787.69;5160803;27;41937;-80
2023/06/18 09:32:27;;;;;;;6.03;5.53;;;;;;;38.34;21.58;98805.97;5178205;27;42971;-80
2023/06/18 09:34:55;;;;;;;6.25;5.70;;;;;;;38.92;20.74;98800.91;5177376;27;39401;-79
2023/06/18 09:37:22;;;;;;;6.97;6.47;;;;;;;39.59;20.50;98799.56;5174707;27;41686;-79
2023/06/18 09:39:53;;;;;;;6.18;5.72;;;;;;;40.20;19.06;98773.06;5178580;27;42917;-79
2023/06/18 09:42:30;;;;;;;6.65;6.05;;;;;;;41.15;18.45;98816.06;5175486;27;42925;-79
2023/06/18 09:45:00;;;;;;;6.22;5.72;;;;;;;42.02;17.92;98811.00;5178743;27;39936;-78
2023/06/18 09:47:28;;;;;;;6.03;5.60;;;;;;;42.96;17.54;98803.22;5194004;27;41676;-79
2023/06/18 09:49:56;;;;;;;6.57;6.05;;;;;;;43.61;16.43;98816.97;5196620;27;44068;-79
2023/06/18 09:52:28;;;;;;;6.07;5.53;;;;;;;44.06;16.51;98808.69;5161043;27;42169;-79
2023/06/18 09:54:57;;;;;;;6.05;5.55;;;;;;;44.06;15.43;98817.06;5178653;27;40277;-79
2023/06/18 09:57:24;;;;;;;6.35;5.80;;;;;;;43.65;16.03;98766.94;5197588;27;41720;-79
2023/06/18 10:00:11;;;;;;;6.72;6.22;;;;;;;43.45;15.56;98820.38;5197422;27;43029;-79
2023/06/18 10:02:39;;;;;;;5.90;5.40;;;;;;;42.82;16.68;98798.78;5195576;27;43236;-79
2023/06/18 10:05:07;;;;;;;5.95;5.45;;;;;;;42.39;16.98;98800.94;5196790;27;41206;-79
2023/06/18 10:07:35;;;;;;;6.53;6.03;;;;;;;41.75;17.59;98808.88;5177494;27;41695;-80
2023/06/18 10:10:05;;;;;;;6.40;5.88;;;;;;;41.07;17.33;98805.53;5159775;27;41769;-79
2023/06/18 10:12:33;;;;;;;6.80;6.30;;;;;;;40.50;17.82;98798.91;5177438;27;43152;-79
2023/06/18 10:15:01;;;;;;;6.88;6.20;;;;;;;40.06;17.38;98780.38;5159524;27;40443;-79
2023/06/18 10:17:35;;;;;;;6.22;5.72;;;;;;;39.89;18.77;98780.00;5159603;27;40813;-79
2023/06/18 10:20:05;;;;;;;6.88;5.90;;;;;;;39.97;19.22;98772.97;5195279;27;42904;-79
2023/06/18 10:22:36;;;;;;;6.95;6.15;;;;;;;40.00;19.43;98777.97;5159406;27;42744;-79
2023/06/18 10:25:05;;;;;;;6.60;6.10;;;;;;;39.91;19.14;98777.75;5159256;27;41668;-79
2023/06/18 10:27:33;;;;;;;6.65;5.88;;;;;;;39.72;18.76;98765.66;5159141;27;43244;-80
2023/06/18 10:30:01;;;;;;;6.30;5.80;;;;;;;39.50;19.00;98769.69;5176804;27;43632;-80
2023/06/18 10:32:31;;;;;;;7.60;6.78;;;;;;;39.20;19.28;98747.63;5159264;27;42036;-78
2023/06/18 10:35:01;;;;;;;7.00;6.50;;;;;;;39.10;19.39;98764.31;5177655;27;39998;-79
2023/06/18 10:37:31;;;;;;;6.53;6.00;;;;;;;39.09;19.32;98768.19;5196651;27;43132;-79
2023/06/18 10:39:59;;;;;;;7.05;6.50;;;;;;;39.11;20.21;98743.81;5177614;27;42833;-79
2023/06/18 10:42:26;;;;;;;6.97;6.35;;;;;;;39.25;19.34;98761.47;5177846;27;43303;-79
2023/06/18 10:44:57;;;;;;;6.38;5.88;;;;;;;39.14;19.25;98765.41;5177873;27;40945;-79
2023/06/18 10:47:27;;;;;;;6.10;5.60;;;;;;;38.87;18.99;98748.31;5176330;27;40762;-79
2023/06/18 10:50:20;;;;;;;6.32;5.82;;;;;;;38.80;19.01;98743.91;5176168;27;42741;-80
2023/06/18 10:52:49;;;;;;;6.85;6.35;;;;;;;38.55;17.92;98754.22;5185077;27;41605;-81
2023/06/18 10:55:28;;;;;;;6.57;6.07;;;;;;;38.39;17.70;98742.31;5185631;27;40934;-82
2023/06/18 10:58:02;;;;;;;6.80;5.80;;;;;;;38.42;17.32;98750.06;5174531;27;41989;-83
2023/06/18 11:00:56;;;;;;;6.00;5.50;;;;;;;38.14;17.62;98725.75;5161114;27;20219;-82
2023/06/18 11:03:49;;;;;;;6.20;5.68;;;;;;;37.87;17.84;98687.28;5165118;27;42658;-82
2023/06/18 11:06:28;;;;;;;6.32;5.90;;;;;;;38.05;18.42;98708.88;5160384;27;40019;-81
2023/06/18 11:08:56;;;;;;;7.22;5.85;;;;;;;38.23;17.32;98726.84;5159553;27;41007;-80
2023/06/18 11:11:25;;;;;;;8.65;5.55;;;;;;;38.29;17.03;98758.94;5159296;27;41817;-81
2023/06/18 11:13:55;;;;;;;5.63;5.22;;;;;;;38.22;16.90;98747.31;5160181;27;43407;-82
2023/06/18 11:16:24;;;;;;;6.28;5.70;;;;;;;38.08;17.29;98731.28;5177860;27;39875;-83
2023/06/18 11:18:53;;;;;;;6.82;6.30;;;;;;;38.20;17.46;98749.56;5160397;27;41710;-81
2023/06/18 11:21:23;;;;;;;6.05;5.55;;;;;;;38.27;17.84;98747.31;5160884;27;41903;-82
2023/06/18 11:23:51;;;;;;;6.13;5.63;;;;;;;38.30;17.47;98755.06;5159329;27;41102;-82
2023/06/18 11:26:22;;;;;;;6.10;5.60;;;;;;;38.21;17.21;98740.13;5177628;27;38703;-82
2023/06/18 11:28:51;;;;;;;6.43;5.82;;;;;;;38.16;17.08;98743.75;5176503;27;42166;-81
2023/06/18 11:31:19;;;;;;;6.80;6.20;;;;;;;38.25;17.49;98741.22;5196070;27;42912;-79
2023/06/18 11:33:48;;;;;;;6.20;5.70;;;;;;;38.21;17.33;98717.97;5159518;27;41036;-82
2023/06/18 11:36:22;;;;;;;6.43;5.88;;;;;;;38.30;17.34;98728.22;5178406;27;40510;-82
2023/06/18 11:39:05;;;;;;;6.35;5.75;;;;;;;38.35;16.96;98725.44;5160880;27;41790;-81
2023/06/18 11:41:33;;;;;;;6.05;5.45;;;;;;;38.42;18.26;98683.66;5178250;27;43747;-81
2023/06/18 11:44:02;;;;;;;5.47;5.07;;;;;;;38.83;16.74;98720.34;5159864;27;42955;-81
2023/06/18 11:46:32;;;;;;;5.78;5.28;;;;;;;39.04;17.47;98682.34;5159525;27;40261;-82